Time;durP1;ratioP1;P1;durP2;ratioP2;P2;SDS_P1;SDS_P2;PMS_P1;PMS_P2;Temp;Humidity;BMP_temperature;BMP_pressure;BME280_temperature;BME280_humidity;BME280_pressure;Samples;Min_cycle;Max_cycle;Signal;HPM_P1;HPM_P2
2022/01/11 00:01:50;;;;;;;46.92;19.17;;;;;;;;;;4795467;29;20425;-78
2022/01/11 00:04:36;;;;;;;38.55;19.92;;;;;;;;;;4790668;30;20047;-79
2022/01/11 00:07:23;;;;;;;42.80;20.48;;;;;;;;;;4793228;29;20051;-77
2022/01/11 00:10:09;;;;;;;40.55;19.10;;;;;;;;;;4789707;30;20059;-81
2022/01/11 00:12:57;;;;;;;34.63;17.80;;;;;;;;;;4794971;29;20055;-76
2022/01/11 00:15:46;;;;;;;37.80;19.77;;;;;;;;;;4788978;30;20043;-77
2022/01/11 00:18:35;;;;;;;38.55;19.05;;;;;;;;;;4794996;29;20055;-80
2022/01/11 00:21:21;;;;;;;42.88;19.63;;;;;;;;;;4788820;30;20055;-80
2022/01/11 00:27:10;;;;;;;49.80;23.38;;;;;;;;;;4795071;29;20059;-78
2022/01/11 00:30:01;;;;;;;44.97;19.95;;;;;;;;;;4788792;29;20063;-77
2022/01/11 00:32:52;;;;;;;84.22;31.38;;;;;;;;;;4794914;29;20059;-79
2022/01/11 00:36:11;;;;;;;46.85;21.42;;;;;;;;;;4806474;29;20047;-78
2022/01/11 00:38:49;;;;;;;49.17;20.30;;;;;;;;;;4802299;29;20054;-78
2022/01/11 00:41:38;;;;;;;40.30;20.20;;;;;;;;;;4798965;29;20050;-78
2022/01/11 00:44:23;;;;;;;46.28;21.60;;;;;;;;;;4806609;29;20419;-77
2022/01/11 00:47:08;;;;;;;54.17;22.05;;;;;;;;;;4807297;29;20042;-78
2022/01/11 00:49:54;;;;;;;26.45;13.68;;;;;;;;;;4807918;29;20059;-77
2022/01/11 00:52:39;;;;;;;127.57;44.60;;;;;;;;;;4801100;29;20051;-79
2022/01/11 00:55:25;;;;;;;39.75;17.85;;;;;;;;;;4789389;29;20058;-76
2022/01/11 00:58:15;;;;;;;36.63;17.85;;;;;;;;;;4810255;29;20064;-78
2022/01/11 01:01:00;;;;;;;35.72;16.17;;;;;;;;;;4809689;29;20047;-77
2022/01/11 01:03:46;;;;;;;24.00;12.40;;;;;;;;;;4809698;29;20055;-79
2022/01/11 01:06:31;;;;;;;32.55;17.10;;;;;;;;;;4814211;29;20062;-80
2022/01/11 01:09:17;;;;;;;32.35;16.60;;;;;;;;;;4806689;29;20051;-79
2022/01/11 01:12:07;;;;;;;31.80;16.20;;;;;;;;;;4782021;29;20404;-80
2022/01/11 01:14:53;;;;;;;27.58;13.02;;;;;;;;;;4782630;29;20055;-78
2022/01/11 01:17:39;;;;;;;30.80;15.27;;;;;;;;;;4797808;29;20080;-78
2022/01/11 01:20:27;;;;;;;30.58;16.00;;;;;;;;;;4796873;29;20051;-79
2022/01/11 01:23:13;;;;;;;27.35;15.13;;;;;;;;;;4783274;29;20051;-80
2022/01/11 01:25:59;;;;;;;33.95;15.38;;;;;;;;;;4783714;29;20055;-79
2022/01/11 01:28:47;;;;;;;34.22;16.52;;;;;;;;;;4794884;29;20357;-78
2022/01/11 01:31:35;;;;;;;33.58;16.73;;;;;;;;;;4789471;30;20063;-80
2022/01/11 01:34:23;;;;;;;32.05;15.82;;;;;;;;;;4795723;29;20484;-78
2022/01/11 01:37:09;;;;;;;35.33;16.67;;;;;;;;;;4789339;30;20055;-80
2022/01/11 01:39:54;;;;;;;26.27;12.98;;;;;;;;;;4783317;30;20055;-78
2022/01/11 01:42:40;;;;;;;25.75;13.30;;;;;;;;;;4776326;30;20052;-78
2022/01/11 01:45:25;;;;;;;28.58;15.38;;;;;;;;;;4771319;30;20411;-80
2022/01/11 01:48:12;;;;;;;30.83;15.70;;;;;;;;;;4776653;30;20056;-78
2022/01/11 01:50:58;;;;;;;33.28;16.20;;;;;;;;;;4771391;30;20493;-79
2022/01/11 01:53:47;;;;;;;31.95;15.85;;;;;;;;;;4771380;30;20485;-79
2022/01/11 01:56:33;;;;;;;21.85;11.57;;;;;;;;;;4771163;30;20508;-79
2022/01/11 01:59:19;;;;;;;34.08;12.88;;;;;;;;;;4788407;29;20404;-77
2022/01/11 02:02:08;;;;;;;22.13;12.43;;;;;;;;;;4776480;30;20059;-77
2022/01/11 02:04:54;;;;;;;28.88;14.07;;;;;;;;;;4776199;30;20484;-79
2022/01/11 02:07:40;;;;;;;21.45;11.18;;;;;;;;;;4771762;30;20091;-79
2022/01/11 02:10:26;;;;;;;22.70;12.68;;;;;;;;;;4788857;29;20055;-79
2022/01/11 02:13:11;;;;;;;24.35;12.75;;;;;;;;;;4776022;30;20485;-77
2022/01/11 02:15:57;;;;;;;28.42;13.77;;;;;;;;;;4788758;29;20056;-79
2022/01/11 02:18:46;;;;;;;27.55;14.38;;;;;;;;;;4776555;30;20059;-78
2022/01/11 02:21:38;;;;;;;29.65;13.90;;;;;;;;;;4775659;30;20048;-78
2022/01/11 02:24:23;;;;;;;26.42;12.63;;;;;;;;;;4776130;30;20056;-80
2022/01/11 02:27:09;;;;;;;24.05;12.48;;;;;;;;;;4788169;29;20051;-79
2022/01/11 02:29:58;;;;;;;27.80;13.52;;;;;;;;;;4776080;30;20055;-77
2022/01/11 02:32:49;;;;;;;30.88;15.30;;;;;;;;;;4771064;30;20060;-78
2022/01/11 02:35:36;;;;;;;36.15;17.25;;;;;;;;;;4775830;30;20047;-79
2022/01/11 02:38:21;;;;;;;27.17;14.60;;;;;;;;;;4778748;30;20051;-79
2022/01/11 02:41:07;;;;;;;33.53;15.50;;;;;;;;;;4780752;30;20043;-79
2022/01/11 02:43:56;;;;;;;27.77;13.68;;;;;;;;;;4781091;30;20487;-79
2022/01/11 02:46:43;;;;;;;31.88;14.25;;;;;;;;;;4793757;30;20055;-78
2022/01/11 02:49:28;;;;;;;29.30;14.35;;;;;;;;;;4780843;30;20055;-79
2022/01/11 02:52:43;;;;;;;22.45;13.25;;;;;;;;;;4784339;29;20047;-79
2022/01/11 02:55:29;;;;;;;25.33;14.20;;;;;;;;;;4784685;29;20047;-78
2022/01/11 02:58:15;;;;;;;28.63;15.57;;;;;;;;;;4797479;29;20048;-80
2022/01/11 03:01:01;;;;;;;24.75;13.68;;;;;;;;;;4796651;29;20059;-77
2022/01/11 03:03:47;;;;;;;25.38;13.98;;;;;;;;;;4792080;30;20491;-79
2022/01/11 03:06:33;;;;;;;25.95;13.68;;;;;;;;;;4798359;29;20059;-79
2022/01/11 03:09:19;;;;;;;22.45;12.05;;;;;;;;;;4784107;29;20047;-80
2022/01/11 03:12:05;;;;;;;25.08;13.07;;;;;;;;;;4784616;29;20166;-79
2022/01/11 03:14:51;;;;;;;24.48;13.13;;;;;;;;;;4784027;29;20054;-79
2022/01/11 03:17:36;;;;;;;25.38;13.13;;;;;;;;;;4797322;29;20051;-80
2022/01/11 03:20:22;;;;;;;24.75;13.98;;;;;;;;;;4796735;29;20059;-80
2022/01/11 03:23:09;;;;;;;22.58;12.20;;;;;;;;;;4796666;29;20059;-80
2022/01/11 03:25:56;;;;;;;24.67;13.77;;;;;;;;;;4792213;30;20048;-79
2022/01/11 03:28:43;;;;;;;20.52;12.27;;;;;;;;;;4796715;29;20488;-80
2022/01/11 03:31:28;;;;;;;26.65;14.15;;;;;;;;;;4784129;29;20055;-78
2022/01/11 03:34:18;;;;;;;24.38;12.82;;;;;;;;;;4790846;30;20051;-79
2022/01/11 03:37:04;;;;;;;26.42;13.00;;;;;;;;;;4783572;29;20063;-80
2022/01/11 03:39:51;;;;;;;26.08;13.75;;;;;;;;;;4784958;29;20400;-80
2022/01/11 03:42:38;;;;;;;28.80;13.57;;;;;;;;;;4791659;30;20504;-80
2022/01/11 03:45:26;;;;;;;26.23;13.68;;;;;;;;;;4784040;29;20055;-78
2022/01/11 03:48:16;;;;;;;25.10;13.23;;;;;;;;;;4796691;29;20478;-79
2022/01/11 03:51:01;;;;;;;27.80;15.82;;;;;;;;;;4783726;29;20055;-79
2022/01/11 03:54:42;;;;;;;24.25;12.65;;;;;;;;;;4790222;30;20059;-79
2022/01/11 03:57:38;;;;;;;25.42;12.75;;;;;;;;;;4798455;29;20051;-80
2022/01/11 04:00:23;;;;;;;28.23;14.23;;;;;;;;;;4798756;29;20051;-79
2022/01/11 04:03:12;;;;;;;19.55;11.25;;;;;;;;;;4787659;29;20051;-79
2022/01/11 04:05:58;;;;;;;20.13;10.77;;;;;;;;;;4785287;29;20051;-79
2022/01/11 04:08:45;;;;;;;25.38;14.20;;;;;;;;;;4797928;29;20059;-81
2022/01/11 04:11:32;;;;;;;32.22;16.48;;;;;;;;;;4783387;29;20415;-79
2022/01/11 04:14:17;;;;;;;30.85;14.98;;;;;;;;;;4790988;30;20051;-78
2022/01/11 04:17:02;;;;;;;25.02;13.35;;;;;;;;;;4783835;29;20051;-79
2022/01/11 04:19:50;;;;;;;26.77;15.20;;;;;;;;;;4782552;29;20047;-79
2022/01/11 04:22:36;;;;;;;26.45;14.80;;;;;;;;;;4790801;30;20051;-80
2022/01/11 04:25:21;;;;;;;28.00;13.55;;;;;;;;;;4797055;29;20051;-82
2022/01/11 04:28:07;;;;;;;30.05;14.52;;;;;;;;;;4783720;29;20051;-79
2022/01/11 04:30:53;;;;;;;29.73;14.55;;;;;;;;;;4796142;29;20051;-80
2022/01/11 04:33:43;;;;;;;24.35;13.98;;;;;;;;;;4782842;29;20047;-81
2022/01/11 04:36:29;;;;;;;27.10;15.20;;;;;;;;;;4783100;29;20047;-80
2022/01/11 04:39:16;;;;;;;25.85;13.45;;;;;;;;;;4777746;30;20055;-80
2022/01/11 04:42:02;;;;;;;27.85;13.90;;;;;;;;;;4795439;29;20480;-79
2022/01/11 04:44:47;;;;;;;25.88;14.27;;;;;;;;;;4795455;29;20407;-78
2022/01/11 04:47:33;;;;;;;29.58;15.65;;;;;;;;;;4782551;29;20051;-80
2022/01/11 04:50:18;;;;;;;32.10;16.38;;;;;;;;;;4795123;29;20056;-77
2022/01/11 04:53:04;;;;;;;34.92;17.23;;;;;;;;;;4782725;29;20051;-79
2022/01/11 04:55:49;;;;;;;33.60;17.17;;;;;;;;;;4782616;29;20066;-80
2022/01/11 04:58:35;;;;;;;33.05;15.68;;;;;;;;;;4782885;29;20055;-77
2022/01/11 05:01:22;;;;;;;31.70;15.68;;;;;;;;;;4782023;29;20051;-80
2022/01/11 05:04:07;;;;;;;35.03;17.40;;;;;;;;;;4782920;29;20051;-79
2022/01/11 05:06:55;;;;;;;26.55;13.50;;;;;;;;;;4795040;29;20055;-80
2022/01/11 05:09:41;;;;;;;22.95;13.85;;;;;;;;;;4782531;29;20055;-80
2022/01/11 05:12:27;;;;;;;29.08;17.50;;;;;;;;;;4795911;29;20055;-79
2022/01/11 05:15:14;;;;;;;44.13;20.38;;;;;;;;;;4789587;30;20055;-80
2022/01/11 05:17:59;;;;;;;55.90;26.90;;;;;;;;;;4794880;29;20504;-80
2022/01/11 05:20:48;;;;;;;43.75;22.30;;;;;;;;;;4781938;29;20051;-80
2022/01/11 05:23:34;;;;;;;52.95;25.55;;;;;;;;;;4782136;29;20055;-79
2022/01/11 05:26:20;;;;;;;41.63;22.33;;;;;;;;;;4794827;29;20059;-82
2022/01/11 05:29:06;;;;;;;43.85;22.80;;;;;;;;;;4794594;29;20067;-79
2022/01/11 05:31:51;;;;;;;35.20;17.60;;;;;;;;;;4794600;29;20492;-79
2022/01/11 05:34:37;;;;;;;35.08;17.92;;;;;;;;;;4794596;29;20059;-81
2022/01/11 05:37:22;;;;;;;31.98;16.85;;;;;;;;;;4794129;29;20392;-80
2022/01/11 05:40:09;;;;;;;44.92;22.75;;;;;;;;;;4794871;29;20480;-80
2022/01/11 05:42:54;;;;;;;36.47;18.20;;;;;;;;;;4794562;29;20051;-81
2022/01/11 05:45:42;;;;;;;31.17;17.17;;;;;;;;;;4781738;29;20043;-82
2022/01/11 05:48:32;;;;;;;32.55;16.98;;;;;;;;;;4790025;30;20051;-79
2022/01/11 05:51:17;;;;;;;30.10;15.55;;;;;;;;;;4782775;29;20059;-81
2022/01/11 05:54:03;;;;;;;41.53;20.38;;;;;;;;;;4793819;29;20064;-80
2022/01/11 05:56:50;;;;;;;39.85;20.83;;;;;;;;;;4784159;30;20055;-82
2022/01/11 05:59:36;;;;;;;25.30;14.75;;;;;;;;;;4788750;29;20490;-83
2022/01/11 06:02:22;;;;;;;28.40;14.45;;;;;;;;;;4788199;30;20051;-79
2022/01/11 06:05:08;;;;;;;29.55;17.10;;;;;;;;;;4788535;29;20055;-80
2022/01/11 06:07:54;;;;;;;30.83;17.08;;;;;;;;;;4792255;29;20051;-80
2022/01/11 06:10:40;;;;;;;37.72;21.15;;;;;;;;;;4773106;29;20059;-83
2022/01/11 06:13:26;;;;;;;43.10;25.08;;;;;;;;;;4780725;29;20411;-78
2022/01/11 06:16:13;;;;;;;34.50;19.95;;;;;;;;;;4793289;29;20047;-83
2022/01/11 06:18:59;;;;;;;30.77;17.88;;;;;;;;;;4780962;29;20496;-79
2022/01/11 06:21:51;;;;;;;38.53;19.67;;;;;;;;;;4793611;29;20055;-82
2022/01/11 06:24:36;;;;;;;41.45;20.48;;;;;;;;;;4793944;29;20054;-81
2022/01/11 06:27:22;;;;;;;37.22;18.52;;;;;;;;;;4793287;29;20051;-81
2022/01/11 06:30:09;;;;;;;48.33;23.25;;;;;;;;;;4787871;29;20484;-81
2022/01/11 06:32:56;;;;;;;38.03;19.27;;;;;;;;;;4794397;29;20059;-83
2022/01/11 06:35:43;;;;;;;16.92;10.90;;;;;;;;;;4793628;29;20411;-82
2022/01/11 06:38:28;;;;;;;31.83;18.33;;;;;;;;;;4777671;30;20048;-82
2022/01/11 06:41:14;;;;;;;45.47;24.40;;;;;;;;;;4793663;30;20047;-79
2022/01/11 06:44:01;;;;;;;38.75;19.85;;;;;;;;;;4781435;30;20063;-82
2022/01/11 06:46:48;;;;;;;50.28;25.77;;;;;;;;;;4780647;30;20059;-80
2022/01/11 06:49:36;;;;;;;40.38;22.23;;;;;;;;;;4780023;30;20047;-80
2022/01/11 06:52:22;;;;;;;39.63;21.83;;;;;;;;;;4794470;30;20051;-80
2022/01/11 06:55:11;;;;;;;41.67;21.52;;;;;;;;;;4793392;30;20060;-79
2022/01/11 06:57:56;;;;;;;37.50;19.65;;;;;;;;;;4763427;30;20426;-79
2022/01/11 07:00:42;;;;;;;33.40;19.10;;;;;;;;;;4787720;30;20055;-76
2022/01/11 07:03:31;;;;;;;55.17;28.33;;;;;;;;;;4789966;30;20407;-79
2022/01/11 07:06:30;;;;;;;50.05;25.17;;;;;;;;;;4787916;30;20056;-79
2022/01/11 07:09:16;;;;;;;47.83;23.02;;;;;;;;;;4780947;30;20056;-79
2022/01/11 07:12:02;;;;;;;54.25;30.98;;;;;;;;;;4778271;30;20503;-81
2022/01/11 07:14:48;;;;;;;49.42;24.45;;;;;;;;;;4779952;30;20055;-79
2022/01/11 07:17:34;;;;;;;128.40;49.80;;;;;;;;;;4785236;30;20047;-81
2022/01/11 07:20:22;;;;;;;41.30;23.08;;;;;;;;;;4781877;30;20059;-79
2022/01/11 07:23:10;;;;;;;34.88;19.20;;;;;;;;;;4780645;30;20403;-79
2022/01/11 07:25:55;;;;;;;39.83;21.98;;;;;;;;;;4780503;30;20059;-81
2022/01/11 07:28:43;;;;;;;28.08;12.90;;;;;;;;;;4781029;30;20048;-79
2022/01/11 07:31:38;;;;;;;45.97;24.67;;;;;;;;;;4780949;30;20063;-77
2022/01/11 07:34:26;;;;;;;39.00;21.90;;;;;;;;;;4793055;30;20055;-82
2022/01/11 07:37:11;;;;;;;50.03;27.55;;;;;;;;;;4788431;30;20055;-78
2022/01/11 07:40:00;;;;;;;55.88;30.65;;;;;;;;;;4795117;29;20051;-80
2022/01/11 07:42:46;;;;;;;42.17;22.50;;;;;;;;;;4797302;29;20051;-81
2022/01/11 07:45:51;;;;;;;46.60;24.35;;;;;;;;;;4797020;29;20047;-81
2022/01/11 07:48:38;;;;;;;43.13;22.17;;;;;;;;;;4790668;29;20047;-80
2022/01/11 07:51:24;;;;;;;26.70;15.57;;;;;;;;;;4778170;29;20055;-82
2022/01/11 07:54:11;;;;;;;38.45;20.95;;;;;;;;;;4792634;29;20051;-79
2022/01/11 07:56:58;;;;;;;28.63;16.75;;;;;;;;;;4783120;29;20052;-79
2022/01/11 07:59:45;;;;;;;31.85;17.40;;;;;;;;;;4783884;29;20055;-80
2022/01/11 08:02:33;;;;;;;31.23;18.58;;;;;;;;;;4783085;29;20051;-78
2022/01/11 08:05:21;;;;;;;40.53;22.15;;;;;;;;;;4783441;29;20048;-80
2022/01/11 08:08:08;;;;;;;43.88;22.92;;;;;;;;;;4780869;29;20051;-80
2022/01/11 08:10:53;;;;;;;37.33;19.27;;;;;;;;;;4795598;29;20047;-79
2022/01/11 08:13:40;;;;;;;42.33;22.17;;;;;;;;;;4784558;29;20051;-80
2022/01/11 08:16:26;;;;;;;40.83;23.48;;;;;;;;;;4783400;29;20055;-80
2022/01/11 08:19:13;;;;;;;43.25;25.05;;;;;;;;;;4795935;29;20416;-79
2022/01/11 08:21:59;;;;;;;35.55;19.50;;;;;;;;;;4783317;29;20051;-80
2022/01/11 08:24:54;;;;;;;31.33;17.38;;;;;;;;;;4782966;29;20408;-80
2022/01/11 08:27:41;;;;;;;38.75;20.02;;;;;;;;;;4782818;29;20051;-78
2022/01/11 08:30:27;;;;;;;32.53;17.67;;;;;;;;;;4790571;29;20051;-79
2022/01/11 08:33:17;;;;;;;17.88;11.00;;;;;;;;;;4782701;29;20411;-78
2022/01/11 08:36:06;;;;;;;21.45;13.02;;;;;;;;;;4780654;29;20063;-78
2022/01/11 08:38:53;;;;;;;41.05;23.38;;;;;;;;;;4772045;29;20052;-78
2022/01/11 08:41:40;;;;;;;29.25;17.13;;;;;;;;;;4771879;30;20055;-81
2022/01/11 08:44:27;;;;;;;36.65;18.58;;;;;;;;;;4785258;29;20048;-78
2022/01/11 08:47:16;;;;;;;22.20;13.30;;;;;;;;;;4777371;30;20064;-81
2022/01/11 08:50:07;;;;;;;18.77;11.65;;;;;;;;;;4771835;30;20056;-81
2022/01/11 08:53:00;;;;;;;10.73;6.40;;;;;;;;;;4777186;29;20501;-80
2022/01/11 08:55:48;;;;;;;26.67;14.93;;;;;;;;;;4775413;30;20044;-79
2022/01/11 08:58:34;;;;;;;25.50;15.00;;;;;;;;;;4777984;29;20056;-78
2022/01/11 09:01:20;;;;;;;25.33;14.98;;;;;;;;;;4789927;29;20060;-79
2022/01/11 09:04:05;;;;;;;21.58;12.57;;;;;;;;;;4788919;29;20059;-79
2022/01/11 09:07:01;;;;;;;17.35;9.27;;;;;;;;;;4758905;30;20064;-79
2022/01/11 09:09:47;;;;;;;40.28;19.67;;;;;;;;;;4782625;29;20404;-81
2022/01/11 09:12:34;;;;;;;45.83;23.75;;;;;;;;;;4776484;30;20051;-80
2022/01/11 09:15:20;;;;;;;61.90;25.10;;;;;;;;;;4771156;30;20055;-81
2022/01/11 09:18:05;;;;;;;20.40;12.80;;;;;;;;;;4759078;30;20056;-80
2022/01/11 09:20:53;;;;;;;21.17;12.20;;;;;;;;;;4758688;30;20060;-81
2022/01/11 09:23:39;;;;;;;15.45;8.75;;;;;;;;;;4759431;30;20484;-81
2022/01/11 09:26:26;;;;;;;27.00;14.65;;;;;;;;;;4774433;30;20048;-80
2022/01/11 09:29:15;;;;;;;19.95;12.55;;;;;;;;;;4758285;30;20056;-80
2022/01/11 09:32:03;;;;;;;21.05;10.93;;;;;;;;;;4771199;30;20060;-80
2022/01/11 09:34:50;;;;;;;17.10;9.05;;;;;;;;;;4758134;30;20052;-82
2022/01/11 09:37:41;;;;;;;19.13;10.85;;;;;;;;;;4773215;30;20047;-81
2022/01/11 09:40:26;;;;;;;20.10;10.75;;;;;;;;;;4781128;29;20051;-80
2022/01/11 09:43:21;;;;;;;24.65;13.20;;;;;;;;;;4783101;29;20043;-78
2022/01/11 09:46:07;;;;;;;17.17;9.70;;;;;;;;;;4781589;29;20055;-79
2022/01/11 09:48:53;;;;;;;14.85;9.68;;;;;;;;;;4793337;29;20047;-80
2022/01/11 09:51:41;;;;;;;20.88;10.10;;;;;;;;;;4780705;29;20059;-82
2022/01/11 09:54:27;;;;;;;23.40;14.35;;;;;;;;;;4788865;30;20059;-81
2022/01/11 09:57:12;;;;;;;18.65;10.75;;;;;;;;;;4793412;29;20051;-79
2022/01/11 09:59:58;;;;;;;24.70;11.27;;;;;;;;;;4793931;29;20051;-77
2022/01/11 10:03:04;;;;;;;22.95;11.85;;;;;;;;;;4788398;29;20055;-78
2022/01/11 10:06:15;;;;;;;20.20;11.15;;;;;;;;;;4793881;29;20059;-80
2022/01/11 10:09:19;;;;;;;17.52;9.05;;;;;;;;;;4787263;29;20055;-79
2022/01/11 10:12:09;;;;;;;15.82;9.23;;;;;;;;;;4794265;29;20445;-78
2022/01/11 10:14:56;;;;;;;9.70;6.50;;;;;;;;;;4790545;29;20048;-79
2022/01/11 10:17:44;;;;;;;23.25;12.70;;;;;;;;;;4763767;30;20052;-80
2022/01/11 10:20:35;;;;;;;27.77;15.43;;;;;;;;;;4763765;30;20055;-78
2022/01/11 10:23:34;;;;;;;23.23;14.32;;;;;;;;;;4775646;30;20044;-78
2022/01/11 10:26:42;;;;;;;25.42;13.77;;;;;;;;;;4791236;29;20059;-77
2022/01/11 10:29:47;;;;;;;32.45;16.70;;;;;;;;;;4802050;29;20043;-78
2022/01/11 10:32:41;;;;;;;25.80;14.20;;;;;;;;;;4797900;29;20495;-79
2022/01/11 10:35:44;;;;;;;28.20;14.70;;;;;;;;;;4798198;29;20146;-80
2022/01/11 10:38:38;;;;;;;20.17;10.23;;;;;;;;;;4794069;29;20047;-78
2022/01/11 10:41:42;;;;;;;25.92;15.15;;;;;;;;;;4809157;29;20047;-79
2022/01/11 10:44:50;;;;;;;42.45;21.27;;;;;;;;;;4783531;30;20418;-78
2022/01/11 10:47:41;;;;;;;26.45;13.90;;;;;;;;;;4781355;30;20047;-82
2022/01/11 10:50:34;;;;;;;17.27;10.48;;;;;;;;;;4780907;30;20067;-79
2022/01/11 10:53:32;;;;;;;28.85;14.27;;;;;;;;;;4792448;30;20051;-78
2022/01/11 10:56:19;;;;;;;28.17;14.68;;;;;;;;;;4773307;30;20051;-80
2022/01/11 10:59:12;;;;;;;23.30;11.65;;;;;;;;;;4779903;30;20059;-78
2022/01/11 11:02:03;;;;;;;26.45;14.57;;;;;;;;;;4791375;30;20055;-80
2022/01/11 11:04:49;;;;;;;19.58;11.75;;;;;;;;;;4792913;30;20412;-78
2022/01/11 11:07:35;;;;;;;27.42;13.30;;;;;;;;;;4805629;29;20051;-79
2022/01/11 11:10:41;;;;;;;16.75;10.32;;;;;;;;;;4793078;30;20055;-79
2022/01/11 11:13:32;;;;;;;31.33;16.55;;;;;;;;;;4805756;29;20055;-79
2022/01/11 11:16:21;;;;;;;19.63;10.88;;;;;;;;;;4797125;29;20051;-80
2022/01/11 11:19:09;;;;;;;23.02;14.07;;;;;;;;;;4796623;29;20051;-79
2022/01/11 11:22:04;;;;;;;18.63;10.20;;;;;;;;;;4796405;29;20047;-79
2022/01/11 11:24:53;;;;;;;18.10;10.50;;;;;;;;;;4792007;30;20503;-82
2022/01/11 11:27:38;;;;;;;21.50;12.70;;;;;;;;;;4796843;29;20059;-82
2022/01/11 11:30:24;;;;;;;47.70;25.35;;;;;;;;;;4791729;30;20051;-80
2022/01/11 11:33:11;;;;;;;30.35;15.52;;;;;;;;;;4791158;30;20395;-80
2022/01/11 11:35:57;;;;;;;28.58;16.00;;;;;;;;;;4797364;29;20059;-81
2022/01/11 11:38:50;;;;;;;112.80;46.13;;;;;;;;;;4802091;29;20050;-81
2022/01/11 11:41:39;;;;;;;28.83;14.90;;;;;;;;;;4815437;29;20050;-81
2022/01/11 11:44:27;;;;;;;15.65;9.88;;;;;;;;;;4815972;29;20146;-80
2022/01/11 11:47:30;;;;;;;32.13;15.20;;;;;;;;;;4815220;29;20054;-79
2022/01/11 11:50:21;;;;;;;33.35;16.60;;;;;;;;;;4801868;29;20503;-81
2022/01/11 11:53:20;;;;;;;17.48;9.95;;;;;;;;;;4809486;29;20058;-79
2022/01/11 11:56:15;;;;;;;23.30;12.52;;;;;;;;;;4815428;29;20062;-81
2022/01/11 11:59:07;;;;;;;20.58;11.30;;;;;;;;;;4809638;29;20066;-80
2022/01/11 12:01:58;;;;;;;31.02;15.00;;;;;;;;;;4809151;29;20042;-79
2022/01/11 12:04:53;;;;;;;20.50;11.93;;;;;;;;;;4811114;29;20051;-81
2022/01/11 12:07:46;;;;;;;19.30;12.20;;;;;;;;;;4809172;29;20047;-81
2022/01/11 12:10:52;;;;;;;24.60;12.63;;;;;;;;;;4814969;29;20055;-80
2022/01/11 12:13:39;;;;;;;40.83;18.10;;;;;;;;;;4795617;29;20054;-85
2022/01/11 12:16:25;;;;;;;35.55;18.33;;;;;;;;;;4814093;29;20531;-82
2022/01/11 12:19:42;;;;;;;23.23;11.93;;;;;;;;;;4808564;29;20042;-80
2022/01/11 12:22:30;;;;;;;24.55;11.80;;;;;;;;;;4815507;29;20047;-79
2022/01/11 12:25:30;;;;;;;37.55;20.05;;;;;;;;;;4800347;29;20488;-82
2022/01/11 12:28:21;;;;;;;22.13;12.55;;;;;;;;;;4807793;29;20383;-80
2022/01/11 12:31:27;;;;;;;25.98;14.50;;;;;;;;;;4795068;29;20404;-81
2022/01/11 12:34:13;;;;;;;14.23;8.45;;;;;;;;;;4796848;29;20488;-80
2022/01/11 12:37:03;;;;;;;13.30;8.50;;;;;;;;;;4790368;30;20039;-83
2022/01/11 12:40:04;;;;;;;13.65;8.52;;;;;;;;;;4775990;30;20408;-80
2022/01/11 12:42:55;;;;;;;24.05;11.43;;;;;;;;;;4772328;30;20047;-82
2022/01/11 12:46:02;;;;;;;15.57;10.15;;;;;;;;;;4777271;30;20048;-82
2022/01/11 12:48:57;;;;;;;21.73;12.50;;;;;;;;;;4777471;30;20052;-81
2022/01/11 12:52:26;;;;;;;;;;;;;;;;;;4803157;29;20055;-80
2022/01/11 12:54:57;;;;;;;7.68;5.43;;;;;;;;;;4796258;29;19917;-79
2022/01/11 12:57:42;;;;;;;17.60;9.50;;;;;;;;;;4790226;30;20047;-83
2022/01/11 13:00:28;;;;;;;23.73;13.32;;;;;;;;;;4777346;30;20044;-81
2022/01/11 13:03:13;;;;;;;19.63;10.27;;;;;;;;;;4772677;30;20047;-83
2022/01/11 13:05:59;;;;;;;23.52;9.75;;;;;;;;;;4772151;30;20055;-81
2022/01/11 13:08:46;;;;;;;17.52;9.70;;;;;;;;;;4771834;30;20064;-82
2022/01/11 13:11:33;;;;;;;30.75;15.57;;;;;;;;;;4772104;30;20430;-82
2022/01/11 13:14:32;;;;;;;26.60;14.02;;;;;;;;;;4771952;30;20488;-82
2022/01/11 13:17:17;;;;;;;26.25;15.95;;;;;;;;;;4772115;30;20056;-82
2022/01/11 13:20:07;;;;;;;24.00;14.05;;;;;;;;;;4772318;30;20048;-81
2022/01/11 13:23:17;;;;;;;35.58;18.92;;;;;;;;;;4772852;30;20055;-81
2022/01/11 13:26:10;;;;;;;21.60;13.23;;;;;;;;;;4784397;29;20059;-81
2022/01/11 13:28:58;;;;;;;33.15;16.83;;;;;;;;;;4785117;29;20423;-80
2022/01/11 13:31:47;;;;;;;36.35;18.15;;;;;;;;;;4790500;29;20047;-79
2022/01/11 13:34:33;;;;;;;31.42;16.75;;;;;;;;;;4792707;30;20043;-81
2022/01/11 13:37:27;;;;;;;29.27;16.60;;;;;;;;;;4781181;29;20051;-82
2022/01/11 13:40:13;;;;;;;37.25;20.02;;;;;;;;;;4790611;30;20047;-82
2022/01/11 13:43:02;;;;;;;46.35;19.80;;;;;;;;;;4788873;30;20051;-81
2022/01/11 13:45:48;;;;;;;36.33;18.50;;;;;;;;;;4794390;29;20058;-83
2022/01/11 13:48:37;;;;;;;39.90;21.10;;;;;;;;;;4774644;30;20051;-81
2022/01/11 13:51:28;;;;;;;41.35;20.92;;;;;;;;;;4771559;30;20051;-81
2022/01/11 13:54:14;;;;;;;37.70;18.95;;;;;;;;;;4771214;30;20059;-82
2022/01/11 13:57:02;;;;;;;41.38;20.63;;;;;;;;;;4780275;30;20047;-79
2022/01/11 14:00:13;;;;;;;38.15;18.70;;;;;;;;;;4787691;30;20047;-81
2022/01/11 14:03:14;;;;;;;33.72;18.02;;;;;;;;;;4794330;29;20051;-79
2022/01/11 14:06:21;;;;;;;35.92;19.60;;;;;;;;;;4788333;30;20047;-81
2022/01/11 14:09:10;;;;;;;34.90;18.02;;;;;;;;;;4775529;30;20499;-81
2022/01/11 14:12:07;;;;;;;32.28;17.17;;;;;;;;;;4789415;30;20500;-81
2022/01/11 14:14:57;;;;;;;31.08;17.23;;;;;;;;;;4789272;30;20051;-78
2022/01/11 14:17:44;;;;;;;33.50;18.95;;;;;;;;;;4791367;29;20055;-79
2022/01/11 14:20:32;;;;;;;33.78;19.02;;;;;;;;;;4795135;29;20051;-83
2022/01/11 14:23:17;;;;;;;40.42;21.90;;;;;;;;;;4780115;29;20056;-81
2022/01/11 14:26:05;;;;;;;36.45;17.20;;;;;;;;;;4793315;29;20488;-79
2022/01/11 14:28:51;;;;;;;20.20;11.48;;;;;;;;;;4787733;30;20048;-84
2022/01/11 14:31:36;;;;;;;32.83;17.35;;;;;;;;;;4794015;29;20059;-80
2022/01/11 14:34:22;;;;;;;18.25;10.40;;;;;;;;;;4788454;30;20051;-80
2022/01/11 14:37:18;;;;;;;26.05;14.30;;;;;;;;;;4788990;30;20400;-81
2022/01/11 14:40:18;;;;;;;15.70;8.27;;;;;;;;;;4777175;30;20060;-81
2022/01/11 14:43:22;;;;;;;25.30;14.05;;;;;;;;;;4777163;30;20081;-82
2022/01/11 14:46:15;;;;;;;19.60;10.55;;;;;;;;;;4770236;30;20051;-81
2022/01/11 14:49:06;;;;;;;28.38;14.15;;;;;;;;;;4777450;30;20052;-80
2022/01/11 14:51:59;;;;;;;16.98;9.20;;;;;;;;;;4773433;30;20409;-80
2022/01/11 14:54:52;;;;;;;19.40;10.33;;;;;;;;;;4778358;30;20485;-82
2022/01/11 14:57:41;;;;;;;21.80;13.70;;;;;;;;;;4779951;30;20063;-81
2022/01/11 15:00:30;;;;;;;14.55;8.63;;;;;;;;;;4772891;30;20052;-81
2022/01/11 15:03:28;;;;;;;19.08;10.43;;;;;;;;;;4773090;30;20052;-80
2022/01/11 15:06:30;;;;;;;10.65;6.85;;;;;;;;;;4765407;30;20055;-80
2022/01/11 15:09:20;;;;;;;19.38;11.82;;;;;;;;;;4774180;30;20044;-79
2022/01/11 15:12:15;;;;;;;23.50;12.38;;;;;;;;;;4773992;30;20055;-80
2022/01/11 15:15:00;;;;;;;18.55;11.15;;;;;;;;;;4773074;30;20051;-80
2022/01/11 15:17:46;;;;;;;17.42;9.20;;;;;;;;;;4780465;30;20424;-79
2022/01/11 15:20:33;;;;;;;21.15;10.90;;;;;;;;;;4778134;30;20051;-79
2022/01/11 15:23:18;;;;;;;12.60;8.75;;;;;;;;;;4776147;30;20051;-79
2022/01/11 15:26:04;;;;;;;22.25;13.85;;;;;;;;;;4778197;29;20047;-79
2022/01/11 15:28:51;;;;;;;17.52;11.80;;;;;;;;;;4774070;30;20052;-78
2022/01/11 15:31:37;;;;;;;34.75;19.30;;;;;;;;;;4772016;30;20063;-79
2022/01/11 15:34:23;;;;;;;26.35;14.68;;;;;;;;;;4765571;30;20060;-80
2022/01/11 15:37:08;;;;;;;19.98;12.27;;;;;;;;;;4773529;30;20051;-79
2022/01/11 15:39:54;;;;;;;27.35;13.15;;;;;;;;;;4780002;30;20480;-78
2022/01/11 15:42:38;;;;;;;28.75;14.85;;;;;;;;;;4773315;30;20052;-80
2022/01/11 15:45:24;;;;;;;22.58;13.10;;;;;;;;;;4773480;30;20055;-79
2022/01/11 15:48:10;;;;;;;37.17;21.15;;;;;;;;;;4778807;30;20051;-80
2022/01/11 15:50:55;;;;;;;46.10;21.42;;;;;;;;;;4779162;30;20500;-79
2022/01/11 15:53:41;;;;;;;99.82;46.60;;;;;;;;;;4778337;30;20405;-81
2022/01/11 15:56:27;;;;;;;23.55;14.13;;;;;;;;;;4778110;30;20349;-80
2022/01/11 15:59:13;;;;;;;20.05;10.68;;;;;;;;;;4778316;30;20480;-78
2022/01/11 16:02:00;;;;;;;43.58;22.65;;;;;;;;;;4778010;30;20056;-78
2022/01/11 16:04:47;;;;;;;22.80;14.57;;;;;;;;;;4770855;30;20044;-82
2022/01/11 16:07:32;;;;;;;29.90;15.35;;;;;;;;;;4774956;30;20060;-79
2022/01/11 16:10:21;;;;;;;24.00;14.27;;;;;;;;;;4771517;30;20048;-84
2022/01/11 16:13:12;;;;;;;12.98;7.75;;;;;;;;;;4776294;30;20047;-80
2022/01/11 16:15:58;;;;;;;30.17;15.98;;;;;;;;;;4782615;30;20048;-79
2022/01/11 16:18:43;;;;;;;18.70;11.52;;;;;;;;;;4769180;30;20421;-80
2022/01/11 16:21:29;;;;;;;30.75;17.45;;;;;;;;;;4776457;30;20043;-83
2022/01/11 16:24:14;;;;;;;17.25;8.00;;;;;;;;;;4768321;30;20047;-79
2022/01/11 16:27:00;;;;;;;31.92;15.68;;;;;;;;;;4771734;30;20397;-80
2022/01/11 16:29:45;;;;;;;23.98;12.75;;;;;;;;;;4770721;30;20520;-81